createdAt,value
2023-05-02T00:02:25.175Z,2.60
2023-05-02T00:04:52.385Z,2.90
2023-05-02T00:07:20.778Z,2.50
2023-05-02T00:09:47.736Z,2.50
2023-05-02T00:12:14.615Z,2.90
2023-05-02T00:14:41.459Z,1.90
2023-05-02T00:17:08.536Z,2.50
2023-05-02T00:19:40.238Z,2.50
2023-05-02T00:22:07.090Z,2.40
2023-05-02T00:24:33.993Z,2.60
2023-05-02T00:27:01.304Z,2.60
2023-05-02T00:29:28.431Z,2.60
2023-05-02T00:31:55.368Z,2.40
2023-05-02T00:34:22.274Z,2.00
2023-05-02T00:36:49.250Z,2.30
2023-05-02T00:39:16.645Z,2.40
2023-05-02T00:41:43.584Z,2.40
2023-05-02T00:44:10.497Z,2.70
2023-05-02T00:46:38.134Z,2.40
2023-05-02T00:49:05.056Z,2.60
2023-05-02T00:51:33.870Z,2.70
2023-05-02T00:54:01.595Z,2.60
2023-05-02T00:56:28.506Z,2.50
2023-05-02T00:58:55.597Z,2.00
2023-05-02T01:01:31.521Z,2.70
2023-05-02T01:04:23.171Z,2.50
2023-05-02T01:07:25.245Z,2.70
2023-05-02T01:10:09.857Z,2.60
2023-05-02T01:12:54.454Z,2.50
2023-05-02T01:15:23.400Z,2.70
2023-05-02T01:17:52.788Z,2.20
2023-05-02T01:20:22.924Z,2.20
2023-05-02T01:22:50.603Z,2.40
2023-05-02T01:25:17.557Z,2.40
2023-05-02T01:28:02.369Z,2.50
2023-05-02T01:30:33.497Z,2.50
2023-05-02T01:33:03.040Z,2.90
2023-05-02T01:35:32.190Z,2.50
2023-05-02T01:38:01.449Z,2.30
2023-05-02T01:40:32.786Z,1.90
2023-05-02T01:43:01.408Z,2.10
2023-05-02T01:45:29.087Z,2.20
2023-05-02T01:47:56.617Z,2.30
2023-05-02T01:50:25.408Z,2.60
2023-05-02T01:52:54.749Z,2.50
2023-05-02T01:55:24.058Z,2.60
2023-05-02T01:57:54.144Z,2.50
2023-05-02T02:00:23.429Z,1.90
2023-05-02T02:02:53.687Z,1.90
2023-05-02T02:05:22.560Z,2.40
2023-05-02T02:07:49.559Z,2.50
2023-05-02T02:10:18.173Z,2.40
2023-05-02T02:12:54.525Z,2.40
2023-05-02T02:15:24.216Z,2.50
2023-05-02T02:18:02.448Z,3.10
2023-05-02T02:20:32.088Z,2.30
2023-05-02T02:23:03.550Z,3.10
2023-05-02T02:25:31.492Z,2.30
2023-05-02T02:27:58.562Z,1.80
2023-05-02T02:30:25.978Z,2.00
2023-05-02T02:32:52.923Z,2.40
2023-05-02T02:35:20.486Z,2.40
2023-05-02T02:37:59.363Z,2.20
2023-05-02T02:40:33.963Z,2.30
2023-05-02T02:43:34.300Z,2.20
2023-05-02T02:46:25.412Z,2.50
2023-05-02T02:49:11.246Z,1.90
2023-05-02T02:51:54.278Z,2.00
2023-05-02T02:54:40.014Z,2.10
2023-05-02T02:57:32.681Z,2.00
2023-05-02T03:00:21.388Z,2.50
2023-05-02T03:02:49.039Z,2.60
2023-05-02T03:05:17.060Z,2.40
2023-05-02T03:07:44.153Z,2.50
2023-05-02T03:10:12.137Z,2.50
2023-05-02T03:12:40.538Z,2.10
2023-05-02T03:15:23.610Z,2.10
2023-05-02T03:17:51.705Z,2.30
2023-05-02T03:20:18.753Z,2.30
2023-05-02T03:22:45.663Z,2.20
2023-05-02T03:25:13.004Z,2.50
2023-05-02T03:27:41.880Z,2.40
2023-05-02T03:30:10.883Z,2.70
2023-05-02T03:32:37.812Z,2.40
2023-05-02T03:35:06.002Z,2.30
2023-05-02T03:37:35.414Z,2.20
2023-05-02T03:40:03.213Z,1.90
2023-05-02T03:42:30.485Z,2.20
2023-05-02T03:44:58.225Z,2.50
2023-05-02T03:47:25.865Z,2.70
2023-05-02T03:49:53.509Z,2.20
2023-05-02T03:52:20.430Z,2.20
2023-05-02T03:54:48.803Z,2.50
2023-05-02T03:57:15.982Z,2.30
2023-05-02T03:59:45.786Z,2.20
2023-05-02T04:02:16.013Z,2.00
2023-05-02T04:04:47.637Z,2.10
2023-05-02T04:07:18.606Z,2.10
2023-05-02T04:09:49.320Z,2.10
2023-05-02T04:12:16.418Z,2.30
2023-05-02T04:14:46.720Z,2.30
2023-05-02T04:17:16.164Z,2.30
2023-05-02T04:19:49.731Z,2.30
2023-05-02T04:22:17.798Z,2.20
2023-05-02T04:24:49.652Z,2.00
2023-05-02T04:27:17.554Z,2.00
2023-05-02T04:29:49.933Z,2.10
2023-05-02T04:32:17.964Z,2.00
2023-05-02T04:34:46.030Z,2.10
2023-05-02T04:37:13.898Z,2.10
2023-05-02T04:39:43.098Z,2.40
2023-05-02T04:42:15.467Z,2.30
2023-05-02T04:44:50.611Z,2.00
2023-05-02T04:47:17.966Z,1.70
2023-05-02T04:49:45.426Z,2.10
2023-05-02T04:52:12.905Z,2.30
2023-05-02T04:54:39.828Z,2.20
2023-05-02T04:57:08.213Z,2.50
2023-05-02T04:59:38.831Z,2.50
2023-05-02T05:02:08.548Z,2.50
2023-05-02T05:04:36.100Z,2.60
2023-05-02T05:07:03.016Z,2.00
2023-05-02T05:09:29.943Z,1.60
2023-05-02T05:11:56.907Z,2.40
2023-05-02T05:14:24.488Z,2.10
2023-05-02T05:16:54.338Z,2.20
2023-05-02T05:19:21.765Z,2.10
2023-05-02T05:21:48.812Z,2.20
2023-05-02T05:24:18.218Z,2.20
2023-05-02T05:26:45.871Z,2.10
2023-05-02T05:29:13.156Z,1.90
2023-05-02T05:31:42.016Z,1.90
2023-05-02T05:34:10.051Z,2.20
2023-05-02T05:36:38.667Z,2.30
2023-05-02T05:39:05.715Z,2.20
2023-05-02T05:41:35.325Z,2.40
2023-05-02T05:44:05.952Z,2.20
2023-05-02T05:46:33.044Z,2.40
2023-05-02T05:49:01.618Z,2.50
2023-05-02T05:51:29.766Z,1.90
2023-05-02T05:53:59.069Z,1.90
2023-05-02T05:56:27.348Z,2.60
2023-05-02T05:59:00.015Z,2.60
2023-05-02T06:01:27.190Z,2.70
2023-05-02T06:03:54.384Z,2.70
2023-05-02T06:06:21.730Z,3.20
2023-05-02T06:08:48.931Z,3.50
2023-05-02T06:11:16.118Z,3.40
2023-05-02T06:13:43.129Z,2.50
2023-05-02T06:16:10.056Z,2.30
2023-05-02T06:18:37.025Z,2.80
2023-05-02T06:21:05.419Z,2.70
2023-05-02T06:23:33.281Z,2.70
2023-05-02T06:26:01.705Z,3.10
2023-05-02T06:28:29.509Z,2.70
2023-05-02T06:31:05.971Z,2.80
2023-05-02T06:33:34.259Z,2.70
2023-05-02T06:36:02.031Z,2.60
2023-05-02T06:38:33.227Z,2.50
2023-05-02T06:41:00.202Z,2.20
2023-05-02T06:43:27.662Z,2.30
2023-05-02T06:45:56.423Z,2.50
2023-05-02T06:48:23.520Z,2.40
2023-05-02T06:50:53.710Z,2.70
2023-05-02T06:53:20.655Z,2.80
2023-05-02T06:55:49.345Z,2.20
2023-05-02T06:58:16.438Z,2.10
2023-05-02T07:00:43.564Z,2.10
2023-05-02T07:03:11.641Z,2.30
2023-05-02T07:05:38.609Z,2.40
2023-05-02T07:08:06.144Z,2.70
2023-05-02T07:10:33.577Z,2.70
2023-05-02T07:13:00.442Z,2.20
2023-05-02T07:15:27.985Z,2.70
2023-05-02T07:17:55.594Z,2.70
2023-05-02T07:20:23.223Z,2.30
2023-05-02T07:22:51.348Z,2.30
2023-05-02T07:25:18.417Z,2.20
2023-05-02T07:27:45.574Z,2.10
2023-05-02T07:30:13.136Z,2.30
2023-05-02T07:32:40.124Z,2.50
2023-05-02T07:35:07.542Z,2.40
2023-05-02T07:37:35.505Z,2.20
2023-05-02T07:40:03.991Z,2.50
2023-05-02T07:42:31.856Z,1.90
2023-05-02T07:45:00.232Z,2.00
2023-05-02T07:47:27.709Z,2.70
2023-05-02T07:49:55.432Z,2.30
2023-05-02T07:52:22.693Z,2.40
2023-05-02T07:54:50.008Z,2.40
2023-05-02T07:57:17.482Z,2.40
2023-05-02T07:59:45.048Z,2.70
2023-05-02T08:02:13.906Z,2.30
2023-05-02T08:04:41.467Z,2.50
2023-05-02T08:07:08.547Z,2.20
2023-05-02T08:09:35.510Z,1.90
2023-05-02T08:12:03.628Z,2.30
2023-05-02T08:14:30.878Z,2.20
2023-05-02T08:16:58.801Z,2.40
2023-05-02T08:19:25.930Z,2.10
2023-05-02T08:21:54.778Z,2.50
2023-05-02T08:24:22.208Z,2.10
2023-05-02T08:26:49.039Z,2.30
2023-05-02T08:29:16.416Z,2.70
2023-05-02T08:31:43.560Z,2.60
2023-05-02T08:34:10.433Z,2.60
2023-05-02T08:36:39.199Z,2.40
2023-05-02T08:39:08.588Z,2.00
2023-05-02T08:41:35.955Z,2.20
2023-05-02T08:44:04.218Z,2.10
2023-05-02T08:46:32.720Z,2.10
2023-05-02T08:49:00.846Z,2.50
2023-05-02T08:51:29.667Z,2.60
2023-05-02T08:53:58.648Z,2.30
2023-05-02T08:56:26.416Z,2.70
2023-05-02T08:58:53.760Z,2.90
2023-05-02T09:01:23.844Z,2.70
2023-05-02T09:03:52.456Z,2.20
2023-05-02T09:06:23.194Z,1.80
2023-05-02T09:08:53.323Z,2.40
2023-05-02T09:11:21.910Z,2.70
2023-05-02T09:13:55.617Z,2.50
2023-05-02T09:16:25.955Z,4.90
2023-05-02T09:19:01.593Z,7.40
2023-05-02T09:21:40.513Z,5.30
2023-05-02T09:24:18.590Z,7.90
2023-05-02T09:27:09.538Z,7.60
2023-05-02T09:29:38.313Z,5.30
2023-05-02T09:32:08.747Z,4.80
2023-05-02T09:34:39.848Z,6.00
2023-05-02T09:37:08.309Z,7.30
2023-05-02T09:39:37.582Z,6.00
2023-05-02T09:42:05.661Z,6.20
2023-05-02T09:44:38.724Z,6.30
2023-05-02T09:47:07.139Z,6.00
2023-05-02T09:49:45.684Z,6.20
2023-05-02T09:52:17.616Z,6.40
2023-05-02T09:54:46.902Z,6.30
2023-05-02T09:57:14.321Z,6.40
2023-05-02T09:59:41.795Z,6.00
2023-05-02T10:02:11.720Z,5.10
2023-05-02T10:04:40.241Z,5.30
2023-05-02T10:07:10.820Z,5.20
2023-05-02T10:09:43.469Z,6.20
2023-05-02T10:12:14.394Z,6.00
2023-05-02T10:14:43.714Z,6.20
2023-05-02T10:17:16.728Z,5.90
2023-05-02T10:20:03.377Z,5.90
2023-05-02T10:22:32.186Z,5.70
2023-05-02T10:25:00.793Z,5.50
2023-05-02T10:27:31.337Z,5.20
2023-05-02T10:30:02.547Z,4.20
2023-05-02T10:32:31.977Z,4.80
2023-05-02T10:35:05.269Z,4.70
2023-05-02T10:37:34.906Z,4.50
2023-05-02T10:40:02.850Z,5.10
2023-05-02T10:42:31.024Z,5.00
2023-05-02T10:44:58.229Z,5.70
2023-05-02T10:47:27.296Z,4.80
2023-05-02T10:50:03.741Z,5.30
2023-05-02T10:52:38.971Z,5.00
2023-05-02T10:55:23.887Z,4.60
2023-05-02T10:58:00.036Z,4.30
2023-05-02T11:00:32.662Z,4.70
2023-05-02T11:03:00.750Z,4.80
2023-05-02T11:05:28.523Z,3.80
2023-05-02T11:08:28.157Z,3.30
2023-05-02T11:10:55.079Z,4.00
2023-05-02T11:13:51.265Z,4.20
2023-05-02T11:16:19.725Z,4.10
2023-05-02T11:19:01.469Z,4.30
2023-05-02T11:21:30.131Z,4.00
2023-05-02T11:24:36.121Z,4.10
2023-05-02T11:27:44.159Z,4.00
2023-05-02T11:30:12.902Z,4.00
2023-05-02T11:32:46.444Z,3.90
2023-05-02T11:35:16.440Z,4.00
2023-05-02T11:37:43.350Z,4.50
2023-05-02T11:40:14.215Z,3.40
2023-05-02T11:42:42.285Z,3.30
2023-05-02T11:45:09.592Z,3.50
2023-05-02T11:47:37.204Z,3.70
2023-05-02T11:50:08.091Z,3.60
2023-05-02T11:52:40.000Z,3.70
2023-05-02T11:55:11.737Z,3.50
2023-05-02T11:57:39.991Z,4.40
2023-05-02T12:00:11.334Z,3.90
2023-05-02T12:02:46.781Z,4.10
2023-05-02T12:05:15.280Z,4.10
2023-05-02T12:07:47.538Z,3.90
2023-05-02T12:10:14.828Z,4.60
2023-05-02T12:12:44.232Z,23.10
2023-05-02T12:15:13.023Z,23.10
2023-05-02T12:17:43.798Z,49.10
2023-05-02T12:20:12.557Z,52.80
2023-05-02T12:22:39.959Z,65.30
2023-05-02T12:25:08.265Z,63.40
2023-05-02T12:27:35.439Z,57.50
2023-05-02T12:30:02.801Z,50.70
2023-05-02T12:32:33.067Z,38.00
2023-05-02T12:35:03.638Z,35.20
2023-05-02T12:37:30.970Z,40.70
2023-05-02T12:39:57.973Z,38.40
2023-05-02T12:42:26.926Z,39.60
2023-05-02T12:44:57.236Z,38.20
2023-05-02T12:47:25.242Z,40.10
2023-05-02T12:49:53.498Z,39.50
2023-05-02T12:52:21.782Z,31.60
2023-05-02T12:54:48.879Z,27.20
2023-05-02T12:57:26.182Z,30.20
2023-05-02T12:59:57.097Z,34.60
2023-05-02T13:02:24.880Z,33.60
2023-05-02T13:04:52.372Z,34.80
2023-05-02T13:07:19.205Z,33.90
2023-05-02T13:09:46.381Z,32.00
2023-05-02T13:12:13.372Z,25.30
2023-05-02T13:14:43.267Z,24.00
2023-05-02T13:17:13.379Z,25.10
2023-05-02T13:19:47.585Z,25.80
2023-05-02T13:22:21.873Z,27.00
2023-05-02T13:24:49.023Z,27.80
2023-05-02T13:27:18.812Z,27.30
2023-05-02T13:29:46.408Z,26.50
2023-05-02T13:32:13.371Z,21.70
2023-05-02T13:34:40.587Z,20.10
2023-05-02T13:37:07.651Z,23.20
2023-05-02T13:39:35.640Z,22.40
2023-05-02T13:42:06.490Z,23.20
2023-05-02T13:44:33.530Z,24.20
2023-05-02T13:47:00.801Z,24.00
2023-05-02T13:49:28.226Z,24.60
2023-05-02T13:51:55.137Z,21.00
2023-05-02T13:54:22.113Z,21.10
2023-05-02T13:56:48.965Z,19.30
2023-05-02T13:59:16.110Z,19.80
2023-05-02T14:01:43.330Z,21.10
2023-05-02T14:04:10.358Z,23.40
2023-05-02T14:06:39.753Z,23.00
2023-05-02T14:09:07.548Z,22.50
2023-05-02T14:11:34.902Z,22.40
2023-05-02T14:14:02.058Z,18.70
2023-05-02T14:16:30.436Z,17.50
2023-05-02T14:18:58.006Z,18.80
2023-05-02T14:21:24.911Z,20.60
2023-05-02T14:23:51.814Z,19.30
2023-05-02T14:26:20.312Z,20.80
2023-05-02T14:28:47.406Z,20.90
2023-05-02T14:31:14.509Z,19.10
2023-05-02T14:33:42.293Z,19.70
2023-05-02T14:36:09.576Z,16.30
2023-05-02T14:38:36.828Z,16.60
2023-05-02T14:41:03.995Z,17.50
2023-05-02T14:43:31.135Z,16.90
2023-05-02T14:45:59.076Z,18.40
2023-05-02T14:48:26.312Z,18.30
2023-05-02T14:50:54.015Z,18.20
2023-05-02T14:53:22.228Z,18.50
2023-05-02T14:55:49.196Z,15.20
2023-05-02T14:58:20.749Z,12.30
2023-05-02T15:00:48.296Z,14.80
2023-05-02T15:03:15.367Z,16.20
2023-05-02T15:05:42.532Z,17.00
2023-05-02T15:08:09.448Z,15.90
2023-05-02T15:10:39.907Z,15.70
2023-05-02T15:13:07.756Z,16.40
2023-05-02T15:15:35.088Z,16.60
2023-05-02T15:18:02.091Z,17.30
2023-05-02T15:20:29.039Z,13.20
2023-05-02T15:22:56.029Z,12.10
2023-05-02T15:25:23.052Z,13.80
2023-05-02T15:27:51.089Z,14.50
2023-05-02T15:30:18.218Z,15.70
2023-05-02T15:32:45.743Z,15.70
2023-05-02T15:35:12.756Z,16.30
2023-05-02T15:37:39.660Z,15.00
2023-05-02T15:40:07.390Z,15.80
2023-05-02T15:42:36.870Z,15.20
2023-05-02T15:45:04.534Z,12.30
2023-05-02T15:47:31.970Z,11.10
2023-05-02T15:49:59.214Z,13.00
2023-05-02T15:52:29.151Z,14.20
2023-05-02T15:54:56.322Z,12.80
2023-05-02T15:57:23.332Z,13.90
2023-05-02T15:59:51.215Z,14.10
2023-05-02T16:02:22.165Z,13.10
2023-05-02T16:04:49.620Z,14.80
2023-05-02T16:07:17.065Z,13.80
2023-05-02T16:09:44.025Z,15.10
2023-05-02T16:12:11.292Z,10.90
2023-05-02T16:14:38.255Z,9.80
2023-05-02T16:17:05.264Z,12.40
2023-05-02T16:19:32.240Z,12.80
2023-05-02T16:21:59.321Z,12.50
2023-05-02T16:24:26.209Z,13.30
2023-05-02T16:26:53.176Z,12.60
2023-05-02T16:29:20.175Z,13.50
2023-05-02T16:31:47.053Z,13.10
2023-05-02T16:34:14.006Z,13.20
2023-05-02T16:36:41.359Z,10.00
2023-05-02T16:39:08.275Z,10.00
2023-05-02T16:41:36.277Z,11.20
2023-05-02T16:44:03.321Z,11.30
2023-05-02T16:46:31.847Z,11.00
2023-05-02T16:48:59.211Z,11.40
2023-05-02T16:51:26.541Z,11.10
2023-05-02T16:53:53.825Z,11.70
2023-05-02T16:56:21.796Z,11.60
2023-05-02T16:58:49.062Z,9.70
2023-05-02T17:01:16.179Z,8.40
2023-05-02T17:03:43.282Z,10.40
2023-05-02T17:06:10.269Z,10.80
2023-05-02T17:08:37.173Z,11.00
2023-05-02T17:11:04.355Z,10.80
2023-05-02T17:13:31.848Z,10.60
2023-05-02T17:15:59.705Z,11.10
2023-05-02T17:18:28.279Z,10.90
2023-05-02T17:20:55.954Z,10.60
2023-05-02T17:23:23.202Z,9.20
2023-05-02T17:25:51.887Z,8.10
2023-05-02T17:28:20.291Z,9.40
2023-05-02T17:30:47.966Z,9.80
2023-05-02T17:33:14.971Z,10.00
2023-05-02T17:35:43.255Z,9.70
2023-05-02T17:38:10.307Z,10.60
2023-05-02T17:40:38.278Z,9.80
2023-05-02T17:43:05.846Z,9.50
2023-05-02T17:45:33.080Z,9.10
2023-05-02T17:48:01.923Z,7.80
2023-05-02T17:50:29.848Z,7.90
2023-05-02T17:52:57.723Z,8.40
2023-05-02T17:55:24.711Z,9.50
2023-05-02T17:57:52.729Z,10.00
2023-05-02T18:00:20.109Z,9.30
2023-05-02T18:02:47.151Z,9.60
2023-05-02T18:05:14.187Z,8.80
2023-05-02T18:07:41.128Z,8.00
2023-05-02T18:10:08.889Z,6.90
2023-05-02T18:12:36.250Z,8.60
2023-05-02T18:15:06.042Z,8.10
2023-05-02T18:17:33.351Z,8.50
2023-05-02T18:20:00.721Z,8.70
2023-05-02T18:22:28.528Z,8.70
2023-05-02T18:24:56.178Z,8.30
2023-05-02T18:27:23.361Z,8.40
2023-05-02T18:29:50.686Z,7.00
2023-05-02T18:32:17.754Z,6.90
2023-05-02T18:34:44.782Z,8.10
2023-05-02T18:37:11.757Z,7.50
2023-05-02T18:39:41.338Z,7.40
2023-05-02T18:42:08.584Z,7.70
2023-05-02T18:44:36.047Z,8.00
2023-05-02T18:47:05.762Z,8.10
2023-05-02T18:49:32.806Z,8.10
2023-05-02T18:52:00.219Z,6.50
2023-05-02T18:54:28.227Z,6.30
2023-05-02T18:56:55.273Z,6.80
2023-05-02T18:59:22.216Z,7.40
2023-05-02T19:01:49.587Z,7.30
2023-05-02T19:04:16.579Z,7.50
2023-05-02T19:06:43.852Z,7.70
2023-05-02T19:09:13.379Z,7.30
2023-05-02T19:11:40.839Z,7.50
2023-05-02T19:14:08.088Z,6.90
2023-05-02T19:16:36.288Z,6.30
2023-05-02T19:19:03.722Z,5.60
2023-05-02T19:21:30.970Z,6.50
2023-05-02T19:23:58.025Z,6.70
2023-05-02T19:26:25.065Z,6.90
2023-05-02T19:28:52.111Z,6.70
2023-05-02T19:31:20.683Z,7.10
2023-05-02T19:33:52.221Z,6.90
2023-05-02T19:36:22.172Z,7.20
2023-05-02T19:38:51.322Z,6.80
2023-05-02T19:41:18.625Z,6.00
2023-05-02T19:43:46.187Z,5.20
2023-05-02T19:46:14.943Z,6.40
2023-05-02T19:48:42.230Z,6.10
2023-05-02T19:51:09.575Z,6.30
2023-05-02T19:53:38.270Z,6.10
2023-05-02T19:56:07.589Z,6.70
2023-05-02T19:58:34.634Z,7.10
2023-05-02T20:01:01.817Z,6.30
2023-05-02T20:03:29.502Z,5.60
2023-05-02T20:05:58.772Z,4.80
2023-05-02T20:08:28.186Z,5.90
2023-05-02T20:10:56.006Z,6.00
2023-05-02T20:13:23.301Z,6.60
2023-05-02T20:15:51.419Z,5.90
2023-05-02T20:18:19.087Z,6.70
2023-05-02T20:20:46.661Z,6.10
2023-05-02T20:23:14.199Z,6.10
2023-05-02T20:25:42.941Z,6.20
2023-05-02T20:28:10.722Z,5.40
2023-05-02T20:30:40.044Z,4.80
2023-05-02T20:33:15.599Z,5.70
2023-05-02T20:35:44.284Z,6.00
2023-05-02T20:38:12.245Z,6.00
2023-05-02T20:40:41.064Z,5.50
2023-05-02T20:43:09.033Z,5.50
2023-05-02T20:45:36.262Z,5.70
2023-05-02T20:48:03.511Z,5.40
2023-05-02T20:50:31.318Z,5.10
2023-05-02T20:52:58.424Z,3.40
2023-05-02T20:55:25.591Z,4.80
2023-05-02T20:57:53.787Z,5.50
2023-05-02T21:00:24.137Z,5.50
2023-05-02T21:02:51.387Z,5.90
2023-05-02T21:05:20.155Z,5.30
2023-05-02T21:07:47.365Z,5.60
2023-05-02T21:10:15.122Z,5.50
2023-05-02T21:12:42.184Z,5.50
2023-05-02T21:15:09.645Z,4.70
2023-05-02T21:17:39.801Z,4.40
2023-05-02T21:20:07.720Z,4.60
2023-05-02T21:22:34.875Z,4.90
2023-05-02T21:25:01.903Z,5.00
2023-05-02T21:27:29.023Z,5.00
2023-05-02T21:29:56.321Z,5.50
2023-05-02T21:32:23.557Z,5.30
2023-05-02T21:34:50.727Z,6.00
2023-05-02T21:37:17.779Z,5.10
2023-05-02T21:39:44.913Z,4.80
2023-05-02T21:42:12.218Z,5.20
2023-05-02T21:44:39.838Z,5.40
2023-05-02T21:47:06.989Z,5.60
2023-05-02T21:49:34.240Z,5.20
2023-05-02T21:52:01.293Z,5.60
2023-05-02T21:54:28.431Z,5.20
2023-05-02T21:56:55.492Z,4.90
2023-05-02T21:59:22.725Z,4.40
2023-05-02T22:01:49.900Z,5.30
2023-05-02T22:04:18.149Z,4.60
2023-05-02T22:06:51.894Z,5.10
2023-05-02T22:09:20.927Z,4.90
2023-05-02T22:11:47.965Z,5.30
2023-05-02T22:14:15.052Z,5.40
2023-05-02T22:16:42.142Z,4.30
2023-05-02T22:19:11.445Z,3.70
2023-05-02T22:21:38.513Z,4.10
2023-05-02T22:24:06.182Z,4.60
2023-05-02T22:26:33.146Z,4.80
2023-05-02T22:29:00.096Z,4.80
2023-05-02T22:31:27.419Z,4.70
2023-05-02T22:33:54.495Z,4.50
2023-05-02T22:36:21.458Z,4.70
2023-05-02T22:38:48.456Z,4.90
2023-05-02T22:41:15.439Z,4.80
2023-05-02T22:43:42.378Z,4.00
2023-05-02T22:46:09.455Z,4.10
2023-05-02T22:48:37.104Z,4.30
2023-05-02T22:51:04.248Z,4.60
2023-05-02T22:53:31.504Z,4.40
2023-05-02T22:55:58.448Z,4.30
2023-05-02T22:58:25.487Z,4.70
2023-05-02T23:00:52.609Z,4.70
2023-05-02T23:03:19.603Z,3.80
2023-05-02T23:05:46.635Z,4.10
2023-05-02T23:08:13.921Z,4.30
2023-05-02T23:10:40.853Z,3.90
2023-05-02T23:13:07.838Z,4.00
2023-05-02T23:15:34.708Z,4.00
2023-05-02T23:18:01.850Z,3.90
2023-05-02T23:20:28.816Z,4.30
2023-05-02T23:22:56.404Z,3.60
2023-05-02T23:25:26.637Z,3.20
2023-05-02T23:27:53.653Z,3.80
2023-05-02T23:30:20.558Z,3.80
2023-05-02T23:32:47.521Z,3.80
2023-05-02T23:35:14.646Z,4.10
2023-05-02T23:37:41.825Z,3.90
2023-05-02T23:40:09.423Z,4.20
2023-05-02T23:42:40.547Z,3.80
2023-05-02T23:45:09.210Z,3.70
2023-05-02T23:47:37.520Z,3.40
2023-05-02T23:50:05.710Z,3.60
2023-05-02T23:52:33.140Z,4.10
2023-05-02T23:55:00.257Z,4.10
2023-05-02T23:57:29.839Z,4.40
2023-05-02T23:59:56.843Z,3.80
